Unser Platzwetter:
(um das Bild zu aktualisieren oder bei unvollständig geladenem Bild den Reload-Button des Browsers drücken)

 

 
[Quelle: ADDS]
METAR
ETNN 180120Z 16005KT 9999 07/M01 Q1020 BLU+ =
ETNN 172300Z 1800/1809 18005KT 9999 NSW BKN250 BY ETGL
TAF
ETNN 172300Z 1800/1809 18005KT 9999 NSW BKN250 BY ETGL =
SR / SS: 06:39 / 16:54 UTC (Vettweiss-Soller 2019-02-18)
 

Hier gibt es ein Wetterdiagramm der letzten 7 Tage.

Hier geht es zu unserer Webcam.

Satelitenbild:

aktuelles Meteosat-Bild von www.wetterzentrale.de